• Join FlightAware (Why Join?)
  • Login
  • US Flag 
01:53PM EDT


 

Airport Tracker/Info


-or-


 

Live Flight TrackerFlight Track Log ✈ FFT239 ✈ 02-Aug-2013 ✈ KBNA - KDEN

Flight Track Log - Related Links

Times and Time Zones

All times are in EDT time to prevent confusion due to time zone crossing. See the FFT239 flight status page for this flight to view local times or setup timezone preferences in your user account.

Time Position Orientation Groundspeed Altitude Reporting Facility
EDT Latitude Longitude Course Direction KTS MPH feet Rate Location/Type
10:08AM 36.1500 -86.6667 360° North 159 183 1,100  Level Nashville TRACON
10:08AM 36.1500 -86.6667 15° North 157 181 1,600 1,500 Climbing Nashville TRACON
10:09AM 36.2000 -86.6500 15° North 197 227 3,100 1,920 Climbing Nashville TRACON
10:10AM 36.2333 -86.7167 302° West 288 331 5,500 2,700 Climbing Nashville TRACON
10:11AM 36.2500 -86.8167 282° West 275 316 8,600 2,160 Climbing Nashville TRACON
10:13AM 36.2522 -86.9803 271° West 332 382 11,400 2,040 Climbing Memphis Center
10:14AM 36.2619 -87.1086 275° West 345 397 14,200 2,460 Climbing Memphis Center
10:15AM 36.2692 -87.2269 274° West 345 397 16,400 2,040 Climbing Memphis Center
10:16AM 36.2889 -87.3497 281° West 350 403 18,300 1,800 Climbing Memphis Center
10:17AM 36.3125 -87.4697 284° West 357 411 20,000 1,740 Climbing Memphis Center
10:18AM 36.3383 -87.5978 284° West 368 423 21,800 1,740 Climbing Memphis Center
10:19AM 36.3642 -87.7231 284° West 380 437 23,500 1,500 Climbing Memphis Center
10:20AM 36.3897 -87.8564 283° West 391 450 24,800 1,140 Climbing Memphis Center
10:21AM 36.4175 -87.9922 284° West 396 456 25,800 1,080 Climbing Memphis Center
10:22AM 36.4492 -88.1306 286° West 414 476 27,000 1,200 Climbing Memphis Center
10:23AM 36.4767 -88.2692 284° West 414 476 28,300 1,200 Climbing Memphis Center
10:24AM 36.5061 -88.4156 284° West 414 476 29,400 1,020 Climbing Memphis Center
10:25AM 36.5333 -88.5594 283° West 425 489 30,400 1,080 Climbing Memphis Center
10:26AM 36.5625 -88.7086 284° West 435 501 31,600 1,860 Climbing Memphis Center
10:27AM 36.5892 -88.8503 283° West 435 501 34,200 2,160 Climbing Memphis Center
10:28AM 36.6156 -88.9714 285° West 403 464 36,000 900 Climbing Memphis Center
10:29AM 36.6419 -89.1028 284° West 393 452 36,000  Level Memphis Center
10:30AM 36.6664 -89.2394 283° West 393 452 36,000  Level Memphis Center
10:31AM 36.6883 -89.3633 282° West 402 463 36,000  Level Memphis Center
10:32AM 36.7122 -89.4975 283° West 402 463 36,000  Level Memphis Center
10:33AM 36.7358 -89.6319 282° West 402 463 36,000  Level Memphis Center
10:34AM 36.7617 -89.7717 283° West 408 470 36,000  Level Memphis Center
10:35AM 36.7853 -89.9086 282° West 408 470 36,000  Level Memphis Center
10:36AM 36.8106 -90.0458 283° West 408 470 36,000  Level Memphis Center
10:37AM 36.8339 -90.1833 282° West 408 470 36,000  Level Memphis Center
10:38AM 36.8589 -90.3206 283° West 408 470 36,000  Level Memphis Center
10:39AM 36.8833 -90.4517 283° West 403 464 36,000  Level Kansas City Center
10:40AM 36.9058 -90.5886 282° West 403 464 36,000  Level Kansas City Center
10:41AM 36.9303 -90.7253 283° West 404 465 36,000  Level Kansas City Center
10:42AM 36.9531 -90.8617 282° West 402 463 36,000  Level Kansas City Center
10:43AM 36.9775 -90.9967 283° West 400 460 36,000  Level Kansas City Center
10:44AM 37.0006 -91.1417 281° West 399 459 36,000  Level Kansas City Center
10:45AM 37.0258 -91.2747 283° West 395 455 36,000  Level Kansas City Center
10:46AM 37.0656 -91.4303 288° West 392 451 36,000  Level Kansas City Center
10:47AM 37.1000 -91.5617 288° West 393 452 36,000  Level Kansas City Center
10:48AM 37.1344 -91.6947 288° West 398 458 36,000  Level Kansas City Center
10:49AM 37.1706 -91.8267 289° West 399 459 36,000  Level Kansas City Center
10:50AM 37.2078 -91.9614 289° West 404 465 36,000  Level Kansas City Center
10:51AM 37.2442 -92.0953 289° West 405 466 36,000  Level Kansas City Center
10:52AM 37.2825 -92.2278 290° West 402 463 36,000  Level Kansas City Center
10:53AM 37.3300 -92.3881 290° West 405 466 36,000  Level Kansas City Center
10:54AM 37.3692 -92.5208 290° West 403 464 36,000  Level Kansas City Center
10:55AM 37.4081 -92.6564 290° West 407 468 36,000  Level Kansas City Center
10:56AM 37.4511 -92.7894 292° West 407 468 36,000  Level Kansas City Center
10:57AM 37.4944 -92.9208 293° West 405 466 36,000  Level Kansas City Center
10:58AM 37.5350 -93.0550 291° West 406 467 36,000  Level Kansas City Center
10:59AM 37.5711 -93.1942 288° West 413 475 36,000  Level Kansas City Center
11:00AM 37.5933 -93.3658 279° West 415 478 36,000  Level Kansas City Center
11:01AM 37.6128 -93.5114 280° West 418 481 36,000  Level Kansas City Center
11:02AM 37.6311 -93.6567 279° West 418 481 36,000  Level Kansas City Center
11:03AM 37.6494 -93.8008 279° West 416 479 36,000 -60 Level Kansas City Center
11:05AM 37.6675 -93.9428 279° West 412 474 35,900  Descending Kansas City Center
11:06AM 37.6836 -94.0856 278° West 411 473 36,000  Climbing Kansas City Center
11:07AM 37.7011 -94.2269 279° West 409 471 36,000  Level Kansas City Center
11:08AM 37.7203 -94.3983 278° West 408 470 36,000  Level Kansas City Center
11:09AM 37.7369 -94.5378 279° West 404 465 36,000  Level Kansas City Center
11:10AM 37.7528 -94.6722 279° West 402 463 36,000  Level Kansas City Center
11:11AM 37.7703 -94.8286 278° West 401 461 36,000  Level Kansas City Center
11:12AM 37.7869 -94.9600 279° West 398 458 36,000  Level Kansas City Center
11:13AM 37.8039 -95.0931 279° West 399 459 36,000  Level Kansas City Center
11:14AM 37.8200 -95.2475 278° West 402 463 36,000  Level Kansas City Center
11:15AM 37.8317 -95.3906 276° West 406 467 36,000  Level Kansas City Center
11:16AM 37.8439 -95.5336 276° West 408 470 36,000  Level Kansas City Center
11:17AM 37.8553 -95.6786 276° West 413 475 36,000  Level Kansas City Center
11:18AM 37.8661 -95.8494 275° West 409 471 36,000  Level Kansas City Center
11:19AM 37.8778 -95.9917 276° West 408 470 36,000  Level Kansas City Center
11:20AM 37.8897 -96.1314 276° West 411 473 36,000  Level Kansas City Center
11:21AM 37.9011 -96.2758 276° West 413 475 36,000  Level Kansas City Center
11:22AM 37.9117 -96.4211 275° West 414 476 36,000  Level Kansas City Center
11:23AM 37.9264 -96.5950 276° West 415 478 36,000  Level Kansas City Center
11:24AM 37.9361 -96.7403 275° West 415 478 36,000  Level Kansas City Center
11:25AM 37.9472 -96.8864 276° West 416 479 36,000  Level Kansas City Center
11:26AM 37.9586 -97.0300 276° West 412 474 36,000  Level Kansas City Center
11:27AM 37.9689 -97.1747 275° West 414 476 36,000  Level Kansas City Center
11:28AM 37.9789 -97.3189 275° West 411 473 36,000  Level Kansas City Center
11:29AM 37.9903 -97.4822 275° West 408 470 36,000  Level Kansas City Center
11:30AM 38.0003 -97.6256 275° West 410 472 36,000  Level Kansas City Center
11:31AM 38.0094 -97.7678 275° West 407 468 36,000  Level Kansas City Center
11:32AM 38.0189 -97.9161 275° West 406 467 36,000  Level Kansas City Center
11:33AM 38.0300 -98.0636 276° West 412 474 36,000  Level Kansas City Center
11:34AM 38.0394 -98.2258 274° West 406 467 36,000  Level Kansas City Center
11:36AM 38.0481 -98.3686 274° West 408 470 36,000  Level Kansas City Center
11:37AM 38.0567 -98.5131 274° West 410 472 36,000  Level Kansas City Center
11:38AM 38.0650 -98.6556 274° West 408 470 36,000  Level Kansas City Center
11:39AM 38.0736 -98.7981 274° West 406 467 36,000  Level Kansas City Center
11:40AM 38.0831 -98.9700 274° West 407 468 36,000  Level Kansas City Center
11:41AM 38.0914 -99.1139 274° West 409 471 36,000  Level Kansas City Center
11:42AM 38.1008 -99.2578 275° West 409 471 36,000  Level Kansas City Center
11:43AM 38.1072 -99.4011 273° West 408 470 36,000  Level Kansas City Center
11:44AM 38.1147 -99.5539 274° West 408 470 36,000  Level Kansas City Center
11:45AM 38.1236 -99.7147 274° West 409 471 36,000  Level Kansas City Center
11:46AM 38.1294 -99.8517 273° West 408 470 36,000  Level Kansas City Center
11:47AM 38.1367 -100.0103 273° West 405 466 36,000  Level Kansas City Center
11:48AM 38.1431 -100.1458 273° West 403 464 36,000  Level Kansas City Center
11:49AM 38.1503 -100.3036 273° West 402 463 36,000  Level Kansas City Center
11:50AM 38.1553 -100.4386 273° West 402 463 36,000  Level Kansas City Center
11:51AM 38.1622 -100.5975 273° West 405 466 36,000  Level Kansas City Center
11:52AM 38.1681 -100.7342 273° West 406 467 36,000  Level Kansas City Center
11:53AM 38.1744 -100.8936 273° West 407 468 36,000  Level Kansas City Center
11:54AM 38.1794 -101.0303 273° West 408 470 36,000  Level Kansas City Center
11:55AM 38.1850 -101.1889 273° West 405 466 36,000  Level Kansas City Center
11:56AM 38.1889 -101.3250 272° West 405 466 36,000  Level Kansas City Center
11:57AM 38.2353 -101.4717 292° West 408 470 36,000  Level Kansas City Center
11:58AM 38.2925 -101.5911 301° West 412 474 36,000  Level Kansas City Center
11:59AM 38.3597 -101.7275 302° West 410 472 36,000  Level Kansas City Center
12:00PM 38.4178 -101.8464 302° West 412 474 36,000  Level Kansas City Center
12:02PM 38.5047 -102.0256 302° West 415 478 36,000  Level Denver Center
12:03PM 38.5708 -102.1647 301° West 412 474 36,000  Level Denver Center
12:04PM 38.6292 -102.2861 302° West 418 481 36,000  Level Denver Center
12:05PM 38.6961 -102.4269 301° West 415 478 36,000  Level Denver Center
12:06PM 38.7525 -102.5481 301° West 415 478 36,000  Level Denver Center
12:07PM 38.8197 -102.6875 302° West 413 475 36,000  Level Denver Center
12:08PM 38.8756 -102.8075 301° West 413 475 36,000  Level Denver Center
12:09PM 38.9344 -102.9342 301° West 413 475 36,000 -420 Level Denver Center
12:10PM 39.0169 -103.1108 301° West 413 475 35,100 -1,380 Descending Denver Center
12:11PM 39.0772 -103.2425 301° West 426 490 32,900 -2,520 Descending Denver Center
12:12PM 39.1394 -103.3750 301° West 432 497 29,900 -2,640 Descending Denver Center
12:13PM 39.1989 -103.5056 300° West 426 490 27,500 -2,400 Descending Denver Center
12:14PM 39.2575 -103.6331 301° West 416 479 25,000 -2,400 Descending Denver Center
12:15PM 39.3142 -103.7569 301° West 405 466 22,600 -1,800 Descending Denver Center
12:17PM 39.3781 -103.8964 301° West 377 434 21,400 -1,260 Descending Denver Center
12:18PM 39.4336 -103.9972 306° West 326 375 20,000 -1,440 Descending Denver Center
12:19PM 39.4892 -104.0922 307° West 328 377 18,500 -1,440 Descending Denver Center
12:20PM 39.5450 -104.1853 308° West 327 376 17,100 -1,260 Descending Denver Center
12:21PM 39.6039 -104.2833 308° West 318 366 15,900 -1,140 Descending Denver Center
12:22PM 39.6564 -104.3717 308° West 311 358 14,800 -1,080 Descending Denver Center
12:23PM 39.7108 -104.4633 308° West 300 345 13,700 -1,020 Descending Denver Center
12:24PM 39.7761 -104.5222 325° Northwest 303 349 12,700 -1,020 Descending Denver Center
12:25PM 39.8572 -104.5211 North 273 314 11,700 -840 Descending Denver Center
12:26PM 39.9267 -104.5225 359° North 253 291 11,000 -1,020 Descending Denver Center
12:27PM 40.0008 -104.5225 360° North 249 287 9,700 -1,200 Descending Denver Center
12:28PM 40.0706 -104.5225 360° North 252 290 8,600 -840 Descending Denver Center
12:29PM 40.1314 -104.5456 344° North 226 260 8,000 -300 Descending Denver Center
12:30PM 40.1125 -104.6153 251° West 219 252 8,000 -240 Level Denver Center
12:31PM 40.0519 -104.6544 206° Southwest 223 257 7,500 -540 Descending Denver Center
12:32PM 39.9967 -104.6847 203° Southwest 216 249 7,000 -720 Descending Denver Center
12:33PM 39.9383 -104.6864 181° South 197 227 6,100 -840 Descending Denver Center
12:34PM 39.8950 -104.6872 181° South 159 183 5,300 -780 Descending Denver Center
12:36PM 39.8617 -104.6732 199° South  Level Estimated
12:43PM 39.8617 -104.6732 199° South  Level Estimated
12:44PM 39.8617 -104.6732 199° South  Level Estimated
12:45PM 39.8617 -104.6732 199° South  Level Estimated